createdAt,value
2019-02-28T00:00:06.611Z,4.50
2019-02-28T00:02:41.823Z,4.50
2019-02-28T00:05:13.982Z,4.50
2019-02-28T00:07:49.630Z,4.50
2019-02-28T00:10:20.579Z,4.50
2019-02-28T00:12:52.839Z,4.40
2019-02-28T00:15:25.110Z,4.40
2019-02-28T00:17:57.800Z,4.40
2019-02-28T00:20:31.878Z,4.40
2019-02-28T00:23:04.582Z,4.40
2019-02-28T00:25:38.644Z,4.30
2019-02-28T00:28:11.069Z,4.30
2019-02-28T00:30:44.056Z,4.30
2019-02-28T00:33:16.430Z,4.30
2019-02-28T00:35:49.107Z,4.20
2019-02-28T00:38:21.681Z,4.20
2019-02-28T00:40:54.056Z,4.30
2019-02-28T00:43:26.426Z,4.40
2019-02-28T00:45:59.005Z,4.30
2019-02-28T00:48:31.356Z,4.30
2019-02-28T00:51:03.955Z,4.40
2019-02-28T00:53:37.433Z,4.40
2019-02-28T00:56:10.542Z,4.50
2019-02-28T00:58:43.015Z,4.40
2019-02-28T01:01:15.379Z,4.40
2019-02-28T01:03:48.065Z,4.40
2019-02-28T01:06:20.846Z,4.30
2019-02-28T01:08:56.127Z,4.20
2019-02-28T01:11:27.434Z,4.20
2019-02-28T01:14:01.682Z,4.20
2019-02-28T01:16:34.024Z,4.30
2019-02-28T01:19:09.042Z,4.30
2019-02-28T01:21:40.814Z,4.30
2019-02-28T01:24:13.086Z,4.20
2019-02-28T01:26:46.736Z,4.20
2019-02-28T01:29:19.783Z,4.20
2019-02-28T01:31:52.560Z,4.10
2019-02-28T01:34:25.239Z,4.20
2019-02-28T01:36:57.611Z,4.10
2019-02-28T01:39:30.696Z,4.00
2019-02-28T01:42:03.069Z,3.90
2019-02-28T01:44:36.435Z,3.80
2019-02-28T01:47:08.941Z,3.80
2019-02-28T01:49:41.418Z,3.70
2019-02-28T01:52:13.992Z,3.70
2019-02-28T01:54:46.346Z,3.70
2019-02-28T01:57:19.046Z,3.50
2019-02-28T01:59:52.885Z,3.40
2019-02-28T02:02:25.429Z,3.40
2019-02-28T02:04:58.516Z,3.40
2019-02-28T02:07:33.329Z,3.40
2019-02-28T02:10:07.152Z,3.40
2019-02-28T02:12:39.626Z,3.30
2019-02-28T02:15:12.394Z,3.30
2019-02-28T02:17:44.780Z,3.20
2019-02-28T02:20:17.560Z,3.20
2019-02-28T02:22:50.038Z,3.20
2019-02-28T02:25:22.511Z,3.20
2019-02-28T02:27:54.986Z,3.20
2019-02-28T02:30:27.461Z,3.30
2019-02-28T02:32:59.936Z,3.30
2019-02-28T02:35:32.613Z,3.30
2019-02-28T02:38:05.084Z,3.30
2019-02-28T02:40:37.783Z,3.20
2019-02-28T02:43:10.959Z,3.20
2019-02-28T02:45:44.156Z,3.20
2019-02-28T02:48:16.628Z,3.10
2019-02-28T02:50:49.398Z,3.10
2019-02-28T02:53:22.092Z,3.00
2019-02-28T02:55:55.803Z,3.00
2019-02-28T02:58:28.988Z,2.90
2019-02-28T03:01:01.562Z,2.80
2019-02-28T03:03:34.544Z,2.90
2019-02-28T03:06:12.093Z,2.80
2019-02-28T03:08:41.896Z,2.70
2019-02-28T03:11:14.224Z,2.60
2019-02-28T03:13:46.800Z,2.60
2019-02-28T03:16:19.363Z,2.50
2019-02-28T03:18:56.908Z,2.40
2019-02-28T03:21:25.555Z,2.40
2019-02-28T03:23:57.865Z,2.30
2019-02-28T03:26:29.990Z,2.20
2019-02-28T03:29:07.539Z,2.10
2019-02-28T03:31:36.647Z,2.10
2019-02-28T03:34:13.218Z,2.20
2019-02-28T03:36:43.065Z,2.10
2019-02-28T03:39:15.743Z,2.20
2019-02-28T03:41:49.096Z,2.10
2019-02-28T03:44:23.774Z,2.20
2019-02-28T03:46:56.442Z,2.20
2019-02-28T03:49:29.019Z,2.10
2019-02-28T03:52:05.221Z,2.10
2019-02-28T03:54:35.710Z,2.10
2019-02-28T03:57:07.981Z,2.10
2019-02-28T03:59:40.677Z,2.10
2019-02-28T04:02:13.328Z,2.10
2019-02-28T04:04:50.164Z,2.10
2019-02-28T04:07:19.620Z,2.20
2019-02-28T04:09:51.988Z,2.30
2019-02-28T04:12:24.675Z,2.20
2019-02-28T04:14:57.044Z,2.20
2019-02-28T04:17:30.434Z,2.20
2019-02-28T04:20:03.634Z,2.20
2019-02-28T04:22:36.010Z,2.20
2019-02-28T04:25:08.577Z,2.20
2019-02-28T04:27:41.830Z,2.30
2019-02-28T04:30:14.557Z,2.30
2019-02-28T04:32:47.031Z,2.30
2019-02-28T04:35:24.334Z,2.30
2019-02-28T04:37:53.820Z,2.30
2019-02-28T04:40:26.947Z,2.20
2019-02-28T04:42:59.998Z,2.20
2019-02-28T04:45:32.677Z,2.10
2019-02-28T04:48:05.252Z,2.00
2019-02-28T04:50:38.138Z,2.10
2019-02-28T04:53:10.617Z,2.10
2019-02-28T04:55:42.986Z,2.10
2019-02-28T04:58:16.370Z,2.00
2019-02-28T05:00:48.650Z,2.00
2019-02-28T05:03:21.130Z,2.00
2019-02-28T05:05:53.813Z,2.10
2019-02-28T05:08:26.077Z,2.20
2019-02-28T05:10:58.548Z,2.30
2019-02-28T05:13:31.229Z,2.40
2019-02-28T05:16:03.811Z,2.40
2019-02-28T05:18:36.367Z,2.40
2019-02-28T05:21:08.961Z,2.50
2019-02-28T05:23:41.539Z,2.40
2019-02-28T05:26:14.419Z,2.50
2019-02-28T05:28:47.391Z,2.40
2019-02-28T05:31:20.374Z,2.40
2019-02-28T05:33:52.974Z,2.40
2019-02-28T05:36:26.061Z,2.40
2019-02-28T05:38:59.146Z,2.40
2019-02-28T05:41:32.855Z,2.50
2019-02-28T05:44:06.331Z,2.50
2019-02-28T05:46:39.646Z,2.60
2019-02-28T05:49:12.015Z,2.70
2019-02-28T05:51:45.311Z,2.80
2019-02-28T05:54:18.092Z,2.90
2019-02-28T05:56:51.497Z,3.00
2019-02-28T05:59:27.380Z,3.10
2019-02-28T06:01:58.377Z,3.20
2019-02-28T06:04:30.959Z,3.20
2019-02-28T06:07:03.641Z,3.30
2019-02-28T06:09:36.117Z,3.40
2019-02-28T06:12:09.508Z,3.50
2019-02-28T06:14:42.498Z,3.60
2019-02-28T06:17:17.310Z,3.70
2019-02-28T06:19:48.982Z,3.90
2019-02-28T06:22:21.458Z,4.00
2019-02-28T06:24:54.237Z,4.10
2019-02-28T06:27:26.714Z,4.20
2019-02-28T06:29:59.093Z,4.30
2019-02-28T06:32:32.173Z,4.40
2019-02-28T06:35:04.647Z,4.40
2019-02-28T06:37:38.221Z,4.40
2019-02-28T06:40:13.590Z,4.40
2019-02-28T06:42:46.826Z,4.40
2019-02-28T06:45:19.768Z,4.50
2019-02-28T06:47:52.552Z,4.60
2019-02-28T06:50:25.024Z,4.70
2019-02-28T06:52:59.384Z,4.80
2019-02-28T06:55:31.387Z,5.00
2019-02-28T06:58:04.091Z,5.20
2019-02-28T07:00:36.459Z,5.30
2019-02-28T07:03:09.143Z,5.40
2019-02-28T07:05:42.031Z,5.40
2019-02-28T07:08:14.504Z,5.50
2019-02-28T07:10:48.376Z,5.50
2019-02-28T07:13:22.952Z,5.50
2019-02-28T07:15:59.039Z,5.60
2019-02-28T07:18:30.642Z,5.70
2019-02-28T07:21:03.427Z,5.70
2019-02-28T07:23:36.112Z,5.80
2019-02-28T07:26:08.474Z,5.90
2019-02-28T07:28:41.364Z,5.90
2019-02-28T07:31:13.835Z,5.80
2019-02-28T07:33:46.310Z,5.80
2019-02-28T07:36:18.785Z,5.80
2019-02-28T07:38:51.466Z,5.80
2019-02-28T07:41:26.657Z,5.90
2019-02-28T07:43:59.072Z,5.90
2019-02-28T07:46:31.548Z,6.00
2019-02-28T07:49:04.026Z,6.10
2019-02-28T07:51:36.602Z,6.10
2019-02-28T07:54:12.586Z,6.20
2019-02-28T07:56:44.280Z,6.30
2019-02-28T07:59:16.996Z,6.40
2019-02-28T08:01:50.859Z,6.60
2019-02-28T08:04:23.581Z,6.70
2019-02-28T08:06:56.057Z,6.90
2019-02-28T08:09:30.991Z,6.90
2019-02-28T08:12:03.797Z,6.90
2019-02-28T08:14:36.042Z,6.90
2019-02-28T08:17:09.963Z,6.90
2019-02-28T08:19:42.653Z,7.00
2019-02-28T08:22:14.999Z,7.00
2019-02-28T08:24:47.989Z,7.00
2019-02-28T08:27:20.563Z,7.00
2019-02-28T08:29:53.656Z,7.10
2019-02-28T08:32:26.318Z,7.30
2019-02-28T08:34:59.670Z,7.30
2019-02-28T08:37:33.434Z,7.40
2019-02-28T08:40:06.726Z,7.60
2019-02-28T08:42:39.840Z,7.60
2019-02-28T08:45:13.731Z,7.70
2019-02-28T08:47:46.606Z,7.70
2019-02-28T08:50:23.456Z,7.70
2019-02-28T08:52:55.683Z,7.80
2019-02-28T08:55:29.436Z,7.90
2019-02-28T08:58:06.247Z,8.00
2019-02-28T09:00:37.712Z,8.10
2019-02-28T09:03:10.346Z,8.10
2019-02-28T09:05:42.952Z,8.20
2019-02-28T09:08:15.313Z,8.30
2019-02-28T09:10:47.930Z,8.40
2019-02-28T09:13:20.980Z,8.40
2019-02-28T09:15:53.660Z,8.50
2019-02-28T09:18:26.133Z,8.50
2019-02-28T09:20:58.720Z,8.70
2019-02-28T09:23:34.540Z,8.80
2019-02-28T09:26:05.809Z,8.80
2019-02-28T09:28:38.374Z,8.90
2019-02-28T09:31:10.965Z,9.00
2019-02-28T09:33:43.643Z,9.00
2019-02-28T09:36:20.140Z,9.10
2019-02-28T09:38:57.082Z,9.30
2019-02-28T09:41:25.575Z,9.40
2019-02-28T09:44:00.290Z,9.30
2019-02-28T09:46:32.782Z,9.30
2019-02-28T09:49:12.016Z,9.40
2019-02-28T09:51:42.485Z,9.30
2019-02-28T09:54:15.214Z,9.20
2019-02-28T09:56:47.998Z,9.20
2019-02-28T09:59:20.778Z,9.20
2019-02-28T10:02:01.116Z,9.20
2019-02-28T10:04:30.497Z,9.20
2019-02-28T10:07:01.688Z,9.30
2019-02-28T10:09:34.472Z,9.30
2019-02-28T10:12:10.978Z,9.40
2019-02-28T10:14:43.719Z,9.50
2019-02-28T10:17:16.391Z,9.50
2019-02-28T10:19:51.975Z,9.60
2019-02-28T10:22:22.981Z,9.60
2019-02-28T10:24:55.775Z,9.60
2019-02-28T10:27:28.328Z,9.70
2019-02-28T10:30:00.714Z,9.80
2019-02-28T10:32:33.376Z,9.80
2019-02-28T10:35:06.074Z,9.90
2019-02-28T10:37:38.771Z,9.70
2019-02-28T10:40:14.175Z,9.70
2019-02-28T10:42:47.080Z,9.70
2019-02-28T10:45:19.559Z,9.70
2019-02-28T10:47:53.566Z,9.70
2019-02-28T10:50:32.132Z,9.70
2019-02-28T10:53:05.483Z,9.80
2019-02-28T10:55:36.008Z,9.80
2019-02-28T10:58:08.583Z,9.90
2019-02-28T11:00:43.004Z,9.90
2019-02-28T11:03:16.606Z,9.90
2019-02-28T11:05:53.342Z,10.00
2019-02-28T11:08:24.015Z,10.00
2019-02-28T11:10:56.283Z,10.00
2019-02-28T11:13:31.945Z,10.10
2019-02-28T11:16:02.355Z,10.10
2019-02-28T11:18:36.462Z,10.20
2019-02-28T11:21:09.254Z,10.30
2019-02-28T11:23:41.932Z,10.30
2019-02-28T11:26:14.000Z,10.30
2019-02-28T11:28:46.782Z,10.30
2019-02-28T11:31:20.090Z,10.30
2019-02-28T11:33:52.752Z,10.20
2019-02-28T11:36:25.023Z,10.10
2019-02-28T11:38:57.701Z,10.10
2019-02-28T11:41:30.367Z,10.20
2019-02-28T11:44:03.067Z,10.00
2019-02-28T11:46:36.618Z,10.00
2019-02-28T11:49:09.650Z,10.00
2019-02-28T11:51:42.226Z,10.20
2019-02-28T11:54:15.007Z,10.30
2019-02-28T11:56:47.584Z,10.30
2019-02-28T11:59:20.364Z,10.20
2019-02-28T12:01:53.047Z,10.10
2019-02-28T12:04:25.620Z,10.20
2019-02-28T12:07:01.002Z,10.20
2019-02-28T12:09:32.519Z,10.20
2019-02-28T12:12:07.334Z,10.30
2019-02-28T12:14:39.432Z,10.20
2019-02-28T12:17:12.388Z,10.20
2019-02-28T12:19:47.564Z,10.10
2019-02-28T12:22:18.985Z,10.20
2019-02-28T12:24:53.097Z,10.20
2019-02-28T12:27:27.569Z,10.20
2019-02-28T12:29:59.992Z,10.40
2019-02-28T12:32:32.793Z,10.40
2019-02-28T12:35:05.557Z,10.30
2019-02-28T12:37:38.035Z,10.30
2019-02-28T12:40:12.662Z,10.30
2019-02-28T12:42:45.031Z,10.50
2019-02-28T12:45:21.211Z,10.70
2019-02-28T12:47:53.971Z,10.90
2019-02-28T12:50:29.448Z,10.80
2019-02-28T12:53:01.787Z,11.10
2019-02-28T12:55:35.550Z,11.10
2019-02-28T12:58:08.694Z,11.10
2019-02-28T13:00:41.671Z,11.40
2019-02-28T13:03:19.464Z,11.50
2019-02-28T13:05:49.562Z,11.60
2019-02-28T13:08:22.365Z,11.40
2019-02-28T13:10:55.053Z,11.40
2019-02-28T13:13:28.969Z,11.10
2019-02-28T13:16:01.844Z,11.20
2019-02-28T13:18:34.425Z,11.10
2019-02-28T13:21:10.669Z,11.00
2019-02-28T13:23:42.347Z,10.90
2019-02-28T13:26:15.020Z,11.00
2019-02-28T13:28:47.376Z,11.10
2019-02-28T13:31:19.970Z,11.20
2019-02-28T13:33:53.713Z,11.10
2019-02-28T13:36:26.328Z,11.00
2019-02-28T13:38:59.036Z,11.10
2019-02-28T13:41:31.627Z,11.10
2019-02-28T13:44:04.698Z,10.90
2019-02-28T13:46:39.122Z,11.00
2019-02-28T13:49:15.387Z,10.90
2019-02-28T13:51:47.550Z,10.90
2019-02-28T13:54:20.433Z,10.90
2019-02-28T13:56:53.005Z,10.80
2019-02-28T13:59:28.426Z,10.50
2019-02-28T14:02:00.011Z,10.50
2019-02-28T14:04:32.693Z,10.70
2019-02-28T14:07:07.544Z,10.90
2019-02-28T14:09:40.090Z,10.90
2019-02-28T14:12:12.975Z,10.90
2019-02-28T14:14:45.763Z,11.00
2019-02-28T14:17:18.744Z,10.70
2019-02-28T14:19:53.474Z,10.60
2019-02-28T14:22:27.584Z,10.70
2019-02-28T14:25:04.897Z,10.80
2019-02-28T14:27:36.015Z,10.60
2019-02-28T14:30:10.641Z,10.40
2019-02-28T14:32:45.594Z,10.40
2019-02-28T14:35:22.853Z,10.20
2019-02-28T14:37:55.626Z,10.10
2019-02-28T14:40:29.670Z,10.00
2019-02-28T14:43:03.058Z,9.70
2019-02-28T14:45:39.270Z,9.70
2019-02-28T14:48:10.564Z,9.70
2019-02-28T14:50:44.473Z,9.60
2019-02-28T14:53:17.247Z,9.60
2019-02-28T14:55:49.931Z,9.50
2019-02-28T14:58:22.613Z,9.40
2019-02-28T15:00:55.703Z,9.40
2019-02-28T15:03:28.381Z,9.40
2019-02-28T15:06:00.853Z,9.30
2019-02-28T15:08:33.742Z,9.30
2019-02-28T15:11:10.217Z,9.20
2019-02-28T15:13:41.337Z,9.20
2019-02-28T15:16:14.031Z,9.10
2019-02-28T15:18:47.753Z,9.10
2019-02-28T15:21:21.742Z,9.00
2019-02-28T15:23:54.522Z,9.00
2019-02-28T15:26:29.888Z,9.00
2019-02-28T15:29:01.222Z,8.90
2019-02-28T15:31:33.795Z,8.90
2019-02-28T15:34:06.601Z,8.90
2019-02-28T15:36:39.335Z,8.80
2019-02-28T15:39:12.571Z,8.80
2019-02-28T15:41:45.438Z,8.70
2019-02-28T15:44:18.213Z,8.70
2019-02-28T15:46:52.013Z,8.60
2019-02-28T15:49:25.525Z,8.60
2019-02-28T15:51:58.198Z,8.50
2019-02-28T15:54:30.980Z,8.40
2019-02-28T15:57:03.864Z,8.30
2019-02-28T15:59:36.442Z,8.30
2019-02-28T16:02:09.223Z,8.10
2019-02-28T16:04:41.588Z,8.00
2019-02-28T16:07:14.356Z,7.90
2019-02-28T16:09:47.153Z,7.80
2019-02-28T16:12:20.041Z,7.60
2019-02-28T16:14:52.925Z,7.50
2019-02-28T16:17:25.605Z,7.40
2019-02-28T16:19:58.692Z,7.30
2019-02-28T16:22:31.280Z,7.10
2019-02-28T16:25:04.671Z,7.10
2019-02-28T16:27:37.762Z,7.10
2019-02-28T16:30:13.205Z,7.10
2019-02-28T16:32:49.215Z,7.00
2019-02-28T16:35:22.327Z,7.00
2019-02-28T16:37:56.065Z,6.90
2019-02-28T16:40:29.861Z,6.80
2019-02-28T16:43:04.805Z,6.70
2019-02-28T16:45:43.001Z,6.60
2019-02-28T16:48:15.985Z,6.50
2019-02-28T16:50:50.701Z,6.40
2019-02-28T16:53:25.154Z,6.30
2019-02-28T16:55:58.682Z,6.20
2019-02-28T16:58:33.164Z,6.30
2019-02-28T17:01:07.471Z,6.40
2019-02-28T17:03:41.703Z,6.40
2019-02-28T17:06:15.709Z,6.30
2019-02-28T17:08:57.905Z,6.20
2019-02-28T17:11:31.193Z,6.10
2019-02-28T17:14:13.785Z,6.00
2019-02-28T17:16:54.581Z,6.00
2019-02-28T17:19:28.579Z,6.10
2019-02-28T17:22:01.571Z,6.00
2019-02-28T17:24:35.482Z,6.00
2019-02-28T17:27:26.491Z,6.00
2019-02-28T17:30:06.212Z,6.00
2019-02-28T17:32:39.021Z,6.00
2019-02-28T17:35:12.002Z,5.90
2019-02-28T17:37:44.996Z,5.90
2019-02-28T17:40:18.180Z,5.80
2019-02-28T17:42:51.066Z,5.70
2019-02-28T17:45:28.971Z,5.70
2019-02-28T17:48:34.729Z,5.60
2019-02-28T17:51:30.136Z,5.60
2019-02-28T17:54:40.084Z,5.60
2019-02-28T17:57:41.846Z,5.60
2019-02-28T18:00:52.777Z,5.60
2019-02-28T18:04:03.295Z,5.60
2019-02-28T18:07:13.753Z,5.70
2019-02-28T18:10:00.565Z,5.70
2019-02-28T18:12:55.774Z,5.60
2019-02-28T18:16:05.727Z,5.50
2019-02-28T18:19:07.086Z,5.30
2019-02-28T18:22:12.831Z,5.10
2019-02-28T18:25:10.703Z,5.10
2019-02-28T18:28:08.472Z,5.00
2019-02-28T18:31:00.811Z,5.10
2019-02-28T18:33:33.382Z,5.20
2019-02-28T18:36:09.188Z,5.40
2019-02-28T18:38:42.023Z,5.50
2019-02-28T18:41:14.707Z,5.70
2019-02-28T18:43:48.132Z,5.80
2019-02-28T18:46:20.573Z,5.80
2019-02-28T18:48:54.401Z,5.70
2019-02-28T18:51:27.676Z,5.70
2019-02-28T18:54:00.760Z,5.60
2019-02-28T18:56:33.031Z,5.50
2019-02-28T18:59:05.814Z,5.40
2019-02-28T19:01:38.802Z,5.30
2019-02-28T19:04:11.363Z,5.10
2019-02-28T19:06:44.071Z,5.00
2019-02-28T19:09:25.452Z,4.90
2019-02-28T19:11:58.741Z,4.80
2019-02-28T19:14:32.964Z,4.70
2019-02-28T19:17:05.731Z,4.50
2019-02-28T19:19:38.528Z,4.40
2019-02-28T19:22:11.392Z,4.40
2019-02-28T19:24:46.335Z,4.30
2019-02-28T19:27:22.391Z,4.20
2019-02-28T19:29:56.193Z,4.10
2019-02-28T19:32:30.514Z,4.00
2019-02-28T19:35:03.504Z,3.80
2019-02-28T19:37:36.074Z,3.80
2019-02-28T19:40:10.085Z,3.90
2019-02-28T19:42:44.301Z,4.00
2019-02-28T19:45:17.698Z,4.00
2019-02-28T19:47:53.760Z,4.00
2019-02-28T19:50:26.644Z,4.10
2019-02-28T19:52:59.830Z,4.10
2019-02-28T19:55:33.851Z,4.00
2019-02-28T19:58:10.107Z,3.90
2019-02-28T20:00:43.091Z,3.90
2019-02-28T20:03:15.871Z,3.80
2019-02-28T20:05:51.218Z,3.70
2019-02-28T20:08:24.304Z,3.60
2019-02-28T20:10:55.181Z,3.30
2019-02-28T20:13:26.793Z,3.20
2019-02-28T20:15:57.512Z,3.10
2019-02-28T20:18:28.175Z,2.80
2019-02-28T20:20:59.411Z,2.70
2019-02-28T20:23:30.133Z,2.50
2019-02-28T20:26:01.640Z,2.40
2019-02-28T20:28:33.512Z,2.20
2019-02-28T20:31:05.162Z,2.00
2019-02-28T20:33:36.502Z,1.90
2019-02-28T20:36:07.165Z,1.90
2019-02-28T20:38:41.963Z,2.00
2019-02-28T20:41:12.694Z,1.90
2019-02-28T20:43:43.302Z,1.90
2019-02-28T20:46:13.976Z,1.90
2019-02-28T20:48:44.546Z,2.00
2019-02-28T20:51:15.344Z,2.00
2019-02-28T20:53:46.193Z,2.00
2019-02-28T20:56:17.393Z,2.00
2019-02-28T20:58:49.197Z,2.00
2019-02-28T21:01:19.816Z,2.10
2019-02-28T21:03:50.277Z,2.00
2019-02-28T21:06:24.146Z,2.00
2019-02-28T21:08:54.966Z,2.00
2019-02-28T21:11:25.687Z,1.90
2019-02-28T21:13:56.350Z,1.80
2019-02-28T21:16:27.048Z,1.70
2019-02-28T21:18:58.331Z,1.70
2019-02-28T21:21:28.988Z,1.70
2019-02-28T21:23:59.680Z,1.60
2019-02-28T21:26:30.353Z,1.50
2019-02-28T21:29:00.925Z,1.50
2019-02-28T21:31:32.521Z,1.50
2019-02-28T21:34:02.994Z,1.40
2019-02-28T21:36:33.735Z,1.40
2019-02-28T21:39:06.381Z,1.40
2019-02-28T21:41:38.574Z,1.40
2019-02-28T21:44:09.292Z,1.30
2019-02-28T21:46:40.138Z,1.30
2019-02-28T21:49:10.628Z,1.40
2019-02-28T21:51:41.997Z,1.40
2019-02-28T21:54:12.755Z,1.40
2019-02-28T21:56:43.834Z,1.40
2019-02-28T21:59:14.412Z,1.50
2019-02-28T22:01:44.932Z,1.50
2019-02-28T22:04:15.386Z,1.40
2019-02-28T22:06:45.955Z,1.50
2019-02-28T22:09:16.479Z,1.40
2019-02-28T22:11:46.941Z,1.40
2019-02-28T22:14:17.385Z,1.40
2019-02-28T22:16:48.538Z,1.40
2019-02-28T22:19:19.631Z,1.40
2019-02-28T22:21:50.401Z,1.50
2019-02-28T22:24:20.872Z,1.40
2019-02-28T22:26:51.274Z,1.50
2019-02-28T22:29:21.818Z,1.50
2019-02-28T22:32:11.335Z,1.40
2019-02-28T22:35:00.846Z,1.60
2019-02-28T22:37:31.475Z,1.70
2019-02-28T22:40:01.925Z,1.70
2019-02-28T22:42:34.106Z,1.70
2019-02-28T22:45:05.721Z,1.60
2019-02-28T22:47:36.383Z,1.60
2019-02-28T22:50:06.919Z,1.60
2019-02-28T22:52:37.479Z,1.70
2019-02-28T22:55:08.356Z,1.70
2019-02-28T22:57:38.995Z,1.80
2019-02-28T23:00:19.597Z,1.70
2019-02-28T23:02:51.668Z,1.70
2019-02-28T23:05:22.140Z,1.70
2019-02-28T23:07:52.589Z,1.70
2019-02-28T23:10:23.010Z,1.80
2019-02-28T23:12:53.526Z,1.80
2019-02-28T23:15:24.007Z,1.90
2019-02-28T23:17:54.443Z,1.90
2019-02-28T23:20:24.886Z,1.80
2019-02-28T23:22:55.371Z,1.80
2019-02-28T23:25:25.809Z,1.70
2019-02-28T23:28:13.044Z,1.80
2019-02-28T23:31:08.282Z,1.70
2019-02-28T23:33:38.765Z,1.60
2019-02-28T23:36:09.356Z,1.60
2019-02-28T23:38:39.813Z,1.50
2019-02-28T23:41:10.633Z,1.50
2019-02-28T23:43:41.144Z,1.40
2019-02-28T23:46:11.726Z,1.40
2019-02-28T23:48:42.491Z,1.30
2019-02-28T23:51:13.092Z,1.30
2019-02-28T23:53:43.492Z,1.20
2019-02-28T23:56:13.925Z,1.30
2019-02-28T23:58:44.404Z,1.30
